Terminal Aerodrome Forecast
Issued by NWS

Home | Current Version | Previous Version | Text Only | Print | Product List | Glossary On
Versions: 1 2 3 4 5 6 7 8 9 10 11 12 13 14 15 16 17 18 19 20 21 22 23 24
319
FTUS43 KLSX 212340
TAFCPS
TAF
KCPS 212340Z 2200/2224 18010G16KT P6SM BKN035
     FM220100 17010KT P6SM OVC018
      TEMPO 2202/2203 OVC009
     FM220300 17010KT P6SM VCSH OVC009
     FM220600 17012G18KT 3SM SHRA VCTS OVC015CB
     FM221200 19012G18KT P6SM SCT250
     FM222100 22015G25KT P6SM BKN030=

USA.gov is the U.S. government's official web portal to all federal, state and local government web resources and services.